Time;durP1;ratioP1;P1;durP2;ratioP2;P2;SDS_P1;SDS_P2;PMS_P1;PMS_P2;Temp;Humidity;BMP_temperature;BMP_pressure;BME280_temperature;BME280_humidity;BME280_pressure;Samples;Min_cycle;Max_cycle;Signal;HPM_P1;HPM_P2
2023/04/26 00:01:59;;;;;;;13.07;5.50;;;3.50;99.90;;;;;;5084415;28;20052;-71
2023/04/26 00:04:27;;;;;;;11.68;5.57;;;3.50;99.90;;;;;;5081849;28;20044;-71
2023/04/26 00:06:53;;;;;;;12.57;5.95;;;3.50;99.90;;;;;;5088006;28;20072;-71
2023/04/26 00:09:19;;;;;;;13.75;5.75;;;3.40;99.90;;;;;;5076774;28;20149;-72
2023/04/26 00:11:44;;;;;;;8.57;5.13;;;3.40;99.90;;;;;;5111207;27;20496;-71
2023/04/26 00:14:10;;;;;;;10.40;5.75;;;3.40;99.90;;;;;;5087124;28;20032;-72
2023/04/26 00:16:36;;;;;;;17.65;5.43;;;3.40;99.90;;;;;;5088000;28;20078;-72
2023/04/26 00:19:02;;;;;;;21.48;4.82;;;3.30;99.90;;;;;;5081257;28;20711;-71
2023/04/26 00:21:29;;;;;;;10.50;5.15;;;3.30;99.90;;;;;;5087587;28;20058;-72
2023/04/26 00:23:54;;;;;;;13.88;5.30;;;3.30;99.90;;;;;;5086787;28;20040;-71
2023/04/26 00:26:20;;;;;;;14.43;4.97;;;3.30;99.90;;;;;;5084109;28;20386;-72
2023/04/26 00:28:46;;;;;;;17.00;5.28;;;3.20;99.90;;;;;;5110268;27;20510;-71
2023/04/26 00:31:16;;;;;;;12.48;4.72;;;3.20;99.90;;;;;;5085828;28;20087;-71
2023/04/26 00:33:42;;;;;;;11.13;4.82;;;3.20;99.90;;;;;;5081686;28;20048;-72
2023/04/26 00:36:07;;;;;;;11.10;4.72;;;3.20;99.90;;;;;;5076098;28;20116;-72
2023/04/26 00:38:33;;;;;;;13.18;4.80;;;3.20;99.90;;;;;;5086645;28;20090;-71
2023/04/26 00:40:58;;;;;;;9.38;5.28;;;3.10;99.90;;;;;;5080734;28;20066;-71
2023/04/26 00:43:24;;;;;;;9.15;4.75;;;3.10;99.90;;;;;;5082056;28;20085;-71
2023/04/26 00:45:51;;;;;;;11.35;5.50;;;3.10;99.90;;;;;;5073757;28;20083;-71
2023/04/26 00:48:17;;;;;;;19.85;7.15;;;3.00;99.90;;;;;;5075524;28;20054;-72
2023/04/26 00:50:43;;;;;;;11.25;6.10;;;3.00;99.90;;;;;;5073705;28;20046;-72
2023/04/26 00:53:09;;;;;;;10.70;4.80;;;3.00;99.90;;;;;;5086004;28;20440;-71
2023/04/26 00:55:35;;;;;;;10.55;4.65;;;3.00;99.90;;;;;;5083619;28;20043;-71
2023/04/26 00:58:01;;;;;;;8.38;5.40;;;3.00;99.90;;;;;;5061544;28;20037;-71
2023/04/26 01:00:27;;;;;;;10.43;4.50;;;3.00;99.90;;;;;;5078019;28;20763;-72
2023/04/26 01:02:52;;;;;;;6.57;4.47;;;3.10;99.90;;;;;;5081829;28;20150;-71
2023/04/26 01:05:18;;;;;;;16.83;5.32;;;3.10;99.90;;;;;;5082252;28;20412;-71
2023/04/26 01:07:45;;;;;;;12.02;4.60;;;3.10;99.90;;;;;;5077876;28;20893;-71
2023/04/26 01:10:11;;;;;;;8.90;4.32;;;3.10;99.90;;;;;;5080211;28;20052;-71
2023/04/26 01:12:37;;;;;;;8.45;4.85;;;3.10;99.90;;;;;;5083698;28;20047;-71
2023/04/26 01:15:04;;;;;;;6.80;4.57;;;3.10;99.90;;;;;;5084250;28;20040;-71
2023/04/26 01:17:30;;;;;;;19.27;4.97;;;3.10;99.90;;;;;;5078236;28;20040;-72
2023/04/26 01:19:56;;;;;;;28.05;6.07;;;3.10;99.90;;;;;;5081960;28;20680;-71
2023/04/26 01:22:22;;;;;;;8.77;4.95;;;3.00;99.90;;;;;;5074680;28;20110;-71
2023/04/26 01:24:55;;;;;;;14.57;4.65;;;3.00;99.90;;;;;;5081588;28;20105;-71
2023/04/26 01:27:20;;;;;;;15.38;4.88;;;3.00;99.90;;;;;;5081757;28;20048;-71
2023/04/26 01:29:46;;;;;;;19.95;4.97;;;3.00;99.90;;;;;;5086110;28;20505;-71
2023/04/26 01:32:12;;;;;;;8.88;4.57;;;3.00;99.90;;;;;;5087466;28;20044;-71
2023/04/26 01:34:37;;;;;;;9.45;4.40;;;3.00;99.90;;;;;;5082282;28;20048;-71
2023/04/26 01:37:06;;;;;;;13.13;5.25;;;3.00;99.90;;;;;;5080552;28;20497;-72
2023/04/26 01:39:32;;;;;;;7.18;4.35;;;3.00;99.90;;;;;;5079069;28;20044;-71
2023/04/26 01:41:58;;;;;;;11.43;5.22;;;3.00;99.90;;;;;;5087080;28;20390;-71
2023/04/26 01:44:24;;;;;;;18.30;5.40;;;2.90;99.90;;;;;;5070146;28;20141;-71
2023/04/26 01:46:50;;;;;;;8.02;4.55;;;2.90;99.90;;;;;;5074696;28;20408;-71
2023/04/26 01:49:16;;;;;;;8.82;4.88;;;2.90;99.90;;;;;;5069584;28;20044;-71
2023/04/26 01:51:41;;;;;;;14.13;5.20;;;2.90;99.90;;;;;;5106582;27;20476;-71
2023/04/26 01:54:07;;;;;;;12.30;5.93;;;2.90;99.90;;;;;;5078591;28;20066;-71
2023/04/26 01:56:33;;;;;;;9.10;5.13;;;2.80;99.90;;;;;;5076671;28;20149;-71
2023/04/26 01:58:58;;;;;;;12.05;5.53;;;2.80;99.90;;;;;;5078299;28;20044;-71
2023/04/26 02:01:24;;;;;;;5.32;4.03;;;2.80;99.90;;;;;;5080366;28;20047;-71
2023/04/26 02:03:50;;;;;;;12.68;5.80;;;2.80;99.90;;;;;;5082676;28;20044;-71
2023/04/26 02:06:16;;;;;;;8.75;4.95;;;2.80;99.90;;;;;;5077500;28;20214;-71
2023/04/26 02:08:41;;;;;;;8.52;4.88;;;2.70;99.90;;;;;;5085404;28;20612;-71
2023/04/26 02:11:07;;;;;;;9.00;5.18;;;2.70;99.90;;;;;;5113338;27;20048;-70
2023/04/26 02:13:33;;;;;;;10.68;4.50;;;2.70;99.90;;;;;;5085878;28;20951;-71
2023/04/26 02:15:59;;;;;;;8.40;4.78;;;2.70;99.90;;;;;;5082358;28;20101;-70
2023/04/26 02:18:24;;;;;;;16.30;4.95;;;2.60;99.90;;;;;;5079794;28;20048;-71
2023/04/26 02:20:50;;;;;;;10.57;5.93;;;2.60;99.90;;;;;;5083452;28;20055;-70
2023/04/26 02:23:16;;;;;;;9.00;4.80;;;2.60;99.90;;;;;;5083330;28;20154;-70
2023/04/26 02:25:44;;;;;;;18.63;6.10;;;2.60;99.90;;;;;;5078024;28;20051;-70
2023/04/26 02:28:10;;;;;;;9.27;4.97;;;2.60;99.90;;;;;;5072925;28;20048;-70
2023/04/26 02:30:36;;;;;;;9.95;4.68;;;2.50;99.90;;;;;;5086368;28;20040;-70
2023/04/26 02:33:01;;;;;;;13.38;5.05;;;2.50;99.90;;;;;;5078486;28;20048;-70
2023/04/26 02:35:27;;;;;;;7.00;4.43;;;2.50;99.90;;;;;;5083618;28;20074;-70
2023/04/26 02:37:53;;;;;;;14.93;5.07;;;2.60;99.90;;;;;;5080070;28;20040;-70
2023/04/26 02:40:20;;;;;;;9.68;4.97;;;2.60;99.90;;;;;;5080345;28;20069;-70
2023/04/26 02:42:46;;;;;;;9.93;4.43;;;2.60;99.90;;;;;;5109143;28;20060;-70
2023/04/26 02:45:12;;;;;;;8.98;4.97;;;2.60;99.90;;;;;;5078439;28;20047;-70
2023/04/26 02:47:38;;;;;;;17.60;5.30;;;2.60;99.90;;;;;;5080152;28;20543;-70
2023/04/26 02:50:08;;;;;;;12.93;5.45;;;2.60;99.90;;;;;;5076232;28;20512;-70
2023/04/26 02:52:34;;;;;;;8.13;4.15;;;2.70;99.90;;;;;;5051246;28;20053;-70
2023/04/26 02:55:01;;;;;;;13.55;4.78;;;2.70;99.90;;;;;;5068306;28;20067;-70
2023/04/26 02:57:26;;;;;;;8.45;4.93;;;2.60;99.90;;;;;;5071022;28;20497;-70
2023/04/26 02:59:52;;;;;;;9.50;4.88;;;2.70;99.90;;;;;;5069248;28;20048;-70
2023/04/26 03:02:18;;;;;;;9.95;4.70;;;2.70;99.90;;;;;;5073192;28;20036;-70
2023/04/26 03:04:45;;;;;;;12.45;5.47;;;2.70;99.90;;;;;;5068510;28;20117;-70
2023/04/26 03:07:11;;;;;;;7.00;4.22;;;2.60;99.90;;;;;;5068060;28;20058;-69
2023/04/26 03:09:37;;;;;;;11.02;4.95;;;2.60;99.90;;;;;;5071630;28;20044;-70
2023/04/26 03:12:06;;;;;;;7.97;4.50;;;2.60;99.90;;;;;;5066086;28;20187;-69
2023/04/26 03:14:33;;;;;;;9.20;5.57;;;2.60;99.90;;;;;;5062061;28;20040;-70
2023/04/26 03:16:59;;;;;;;14.60;5.53;;;2.60;99.90;;;;;;5076985;28;20843;-69
2023/04/26 03:19:27;;;;;;;6.82;4.72;;;2.60;99.90;;;;;;5078476;28;20040;-69
2023/04/26 03:21:53;;;;;;;12.80;5.00;;;2.60;99.90;;;;;;5074925;28;20055;-69
2023/04/26 03:24:19;;;;;;;9.68;3.63;;;2.60;99.90;;;;;;5078093;28;20063;-69
2023/04/26 03:26:45;;;;;;;8.05;4.65;;;2.60;99.90;;;;;;5085452;28;20078;-69
2023/04/26 03:29:11;;;;;;;9.85;5.28;;;2.60;99.90;;;;;;5060110;28;20048;-69
2023/04/26 03:31:37;;;;;;;8.93;4.63;;;2.60;99.90;;;;;;5077353;28;20497;-69
2023/04/26 03:34:04;;;;;;;10.60;5.15;;;2.60;99.90;;;;;;5085166;28;20055;-69
2023/04/26 03:36:29;;;;;;;10.32;5.15;;;2.50;99.90;;;;;;5085718;28;20081;-69
2023/04/26 03:38:55;;;;;;;13.18;4.82;;;2.60;99.90;;;;;;5083198;28;20043;-69
2023/04/26 03:41:22;;;;;;;7.35;4.45;;;2.60;99.90;;;;;;5074216;28;20044;-69
2023/04/26 03:43:48;;;;;;;8.30;4.10;;;2.50;99.90;;;;;;5086050;28;20051;-69
2023/04/26 03:46:14;;;;;;;6.20;4.15;;;2.60;99.90;;;;;;5084808;28;20076;-69
2023/04/26 03:48:39;;;;;;;8.55;4.90;;;2.50;99.90;;;;;;5081671;28;20079;-69
2023/04/26 03:51:05;;;;;;;5.97;3.78;;;2.50;99.90;;;;;;5087916;28;20051;-69
2023/04/26 03:53:31;;;;;;;10.15;4.55;;;2.50;99.90;;;;;;5084343;28;20535;-69
2023/04/26 03:55:57;;;;;;;8.60;4.55;;;2.50;99.90;;;;;;5073549;28;20052;-69
2023/04/26 03:58:24;;;;;;;8.82;4.65;;;2.50;99.90;;;;;;5080925;28;20036;-69
2023/04/26 04:00:50;;;;;;;9.60;4.95;;;2.50;99.90;;;;;;5082494;28;20078;-69
2023/04/26 04:03:16;;;;;;;10.02;5.07;;;2.40;99.90;;;;;;5084744;28;20040;-69
2023/04/26 04:05:42;;;;;;;7.55;4.88;;;2.40;99.90;;;;;;5082110;28;20091;-69
2023/04/26 04:08:09;;;;;;;9.73;4.20;;;2.40;99.90;;;;;;5087486;28;20623;-69
2023/04/26 04:10:36;;;;;;;6.97;4.43;;;2.40;99.90;;;;;;5088945;28;20051;-69
2023/04/26 04:13:02;;;;;;;9.88;4.40;;;2.40;99.90;;;;;;5078109;28;20056;-69
2023/04/26 04:15:28;;;;;;;16.13;4.95;;;2.40;99.90;;;;;;5084729;28;20040;-70
2023/04/26 04:17:53;;;;;;;9.48;4.50;;;2.40;99.90;;;;;;5074191;28;20055;-70
2023/04/26 04:20:20;;;;;;;9.52;4.70;;;2.50;99.90;;;;;;5085665;28;20044;-69
2023/04/26 04:22:46;;;;;;;8.45;4.45;;;2.50;99.90;;;;;;5086417;28;20028;-69
2023/04/26 04:25:12;;;;;;;14.70;5.38;;;2.50;99.90;;;;;;5078752;28;20088;-69
2023/04/26 04:27:41;;;;;;;9.45;4.40;;;2.50;99.90;;;;;;5068554;28;20036;-69
2023/04/26 04:30:08;;;;;;;7.80;3.65;;;2.50;99.90;;;;;;5083958;28;20606;-70
2023/04/26 04:32:34;;;;;;;13.95;5.35;;;2.60;99.90;;;;;;5088897;28;20051;-69
2023/04/26 04:35:00;;;;;;;13.23;4.78;;;2.70;99.90;;;;;;5087230;28;20047;-69
2023/04/26 04:37:26;;;;;;;13.75;4.95;;;2.70;99.90;;;;;;5084478;28;20105;-70
2023/04/26 04:39:52;;;;;;;8.80;4.22;;;2.70;99.90;;;;;;5083685;28;20048;-69
2023/04/26 04:42:18;;;;;;;7.90;4.72;;;2.70;99.90;;;;;;5083342;28;20066;-70
2023/04/26 04:44:45;;;;;;;12.63;5.13;;;2.80;99.90;;;;;;5079349;28;20785;-69
2023/04/26 04:47:11;;;;;;;10.40;5.88;;;2.80;99.90;;;;;;5086749;28;20499;-69
2023/04/26 04:49:37;;;;;;;22.55;5.60;;;2.80;99.90;;;;;;5088207;28;20566;-70
2023/04/26 04:52:03;;;;;;;7.93;3.70;;;2.80;99.90;;;;;;5082619;28;20101;-69
2023/04/26 04:54:29;;;;;;;10.88;4.65;;;2.90;99.90;;;;;;5087357;28;20185;-69
2023/04/26 04:56:56;;;;;;;8.02;4.47;;;2.90;99.90;;;;;;5082169;28;20126;-69
2023/04/26 04:59:22;;;;;;;10.10;5.53;;;3.00;99.90;;;;;;5076396;28;20060;-69
2023/04/26 05:01:48;;;;;;;9.57;4.93;;;3.00;99.90;;;;;;5081035;28;20056;-70
2023/04/26 05:04:14;;;;;;;12.77;6.20;;;3.00;99.90;;;;;;5082889;28;20403;-69
2023/04/26 05:06:39;;;;;;;12.32;5.45;;;2.90;99.90;;;;;;5085727;28;20501;-69
2023/04/26 05:09:05;;;;;;;7.63;4.70;;;3.00;99.90;;;;;;5081206;28;20048;-69
2023/04/26 05:11:34;;;;;;;9.85;4.93;;;3.10;99.90;;;;;;5085643;28;20439;-69
2023/04/26 05:14:00;;;;;;;8.98;4.45;;;3.30;99.90;;;;;;5077138;28;20216;-69
2023/04/26 05:16:26;;;;;;;9.85;5.95;;;3.40;99.90;;;;;;5082486;28;20431;-69
2023/04/26 05:18:52;;;;;;;9.93;5.85;;;3.80;99.90;;;;;;5084186;28;20063;-69
2023/04/26 05:21:18;;;;;;;18.05;5.55;;;4.30;99.90;;;;;;5068592;28;20667;-69
2023/04/26 05:23:44;;;;;;;9.15;5.07;;;4.30;99.90;;;;;;5082769;28;20036;-70
2023/04/26 05:26:13;;;;;;;13.57;4.78;;;4.10;99.90;;;;;;5081484;28;20040;-69
2023/04/26 05:28:40;;;;;;;9.73;5.55;;;4.10;99.90;;;;;;5085867;28;20048;-70
2023/04/26 05:31:05;;;;;;;12.63;5.70;;;4.00;99.90;;;;;;5081347;28;20136;-70
2023/04/26 05:33:31;;;;;;;12.30;4.60;;;3.90;99.90;;;;;;5067571;28;20467;-70
2023/04/26 05:35:57;;;;;;;12.63;5.35;;;3.90;99.90;;;;;;5084075;28;20086;-70
2023/04/26 05:38:23;;;;;;;13.40;5.38;;;3.90;99.90;;;;;;5080065;28;20048;-70
2023/04/26 05:40:49;;;;;;;13.18;5.93;;;3.90;99.90;;;;;;5082146;28;20043;-71
2023/04/26 05:43:15;;;;;;;11.55;5.00;;;3.90;99.90;;;;;;5081557;28;20102;-71
2023/04/26 05:45:49;;;;;;;10.35;5.63;;;3.90;99.90;;;;;;5068331;28;20076;-71
2023/04/26 05:48:15;;;;;;;13.85;6.00;;;3.90;99.90;;;;;;5082444;28;20048;-71
2023/04/26 05:50:41;;;;;;;12.88;5.32;;;3.90;99.90;;;;;;5084570;28;20032;-71
2023/04/26 05:53:06;;;;;;;8.10;5.10;;;4.00;99.90;;;;;;5077657;28;20076;-71
2023/04/26 05:55:32;;;;;;;22.38;6.07;;;4.00;99.90;;;;;;5084095;28;20121;-72
2023/04/26 05:57:57;;;;;;;8.27;4.85;;;4.00;99.90;;;;;;5080058;28;20040;-72
2023/04/26 06:00:23;;;;;;;11.05;5.13;;;4.00;99.90;;;;;;5074209;28;20052;-72
2023/04/26 06:02:49;;;;;;;11.82;5.60;;;4.00;99.90;;;;;;5077379;28;20052;-72
2023/04/26 06:05:15;;;;;;;10.68;6.32;;;4.10;99.90;;;;;;5069048;28;20043;-72
2023/04/26 06:07:40;;;;;;;13.60;5.93;;;4.10;99.90;;;;;;5080625;28;20041;-72
2023/04/26 06:10:06;;;;;;;12.25;5.80;;;4.10;99.90;;;;;;5077453;28;20044;-72
2023/04/26 06:12:32;;;;;;;10.75;4.97;;;4.30;99.90;;;;;;5085094;28;20393;-72
2023/04/26 06:14:58;;;;;;;10.48;5.47;;;4.50;99.90;;;;;;5103690;27;20446;-72
2023/04/26 06:17:24;;;;;;;15.23;5.75;;;4.80;99.90;;;;;;5080252;28;21067;-72
2023/04/26 06:19:50;;;;;;;10.55;6.00;;;5.00;99.90;;;;;;5086389;28;20089;-72
2023/04/26 06:22:15;;;;;;;10.10;5.60;;;5.20;99.90;;;;;;5077032;28;20171;-72
2023/04/26 06:24:41;;;;;;;14.02;5.28;;;5.50;99.90;;;;;;5066088;28;20079;-71
2023/04/26 06:27:07;;;;;;;17.70;5.47;;;5.60;99.90;;;;;;5069835;28;20051;-72
2023/04/26 06:29:32;;;;;;;12.07;4.82;;;5.70;99.90;;;;;;5070436;28;20119;-71
2023/04/26 06:31:58;;;;;;;10.40;4.80;;;5.80;99.90;;;;;;5070825;28;20056;-72
2023/04/26 06:34:24;;;;;;;12.90;6.10;;;5.90;99.90;;;;;;5068221;28;20406;-71
2023/04/26 06:36:49;;;;;;;6.82;5.13;;;6.10;99.90;;;;;;5072821;28;20163;-72
2023/04/26 06:39:16;;;;;;;12.00;5.70;;;6.20;99.90;;;;;;5069342;28;20047;-71
2023/04/26 06:41:43;;;;;;;13.45;5.43;;;6.30;99.90;;;;;;5068039;28;20587;-71
2023/04/26 06:44:08;;;;;;;12.10;5.07;;;6.40;99.90;;;;;;5076970;28;20493;-71
2023/04/26 06:46:34;;;;;;;14.07;4.60;;;6.50;99.90;;;;;;5082384;28;20040;-72
2023/04/26 06:49:00;;;;;;;10.25;4.38;;;6.60;99.90;;;;;;5080117;28;20416;-71
2023/04/26 06:51:26;;;;;;;12.00;5.20;;;6.70;99.90;;;;;;5081489;28;20054;-72
2023/04/26 06:53:51;;;;;;;9.63;4.45;;;6.80;99.90;;;;;;5075432;28;20055;-71
2023/04/26 06:56:18;;;;;;;10.32;5.00;;;6.90;99.90;;;;;;5080429;28;20749;-71
2023/04/26 06:59:05;;;;;;;10.85;5.40;;;6.90;99.90;;;;;;5084447;28;20390;-71
2023/04/26 07:01:34;;;;;;;16.23;4.95;;;6.90;99.90;;;;;;5083746;28;20056;-71
2023/04/26 07:04:06;;;;;;;8.63;4.28;;;6.90;99.90;;;;;;5090565;28;20040;-72
2023/04/26 07:06:33;;;;;;;9.75;5.18;;;6.90;99.90;;;;;;5088221;28;20060;-71
2023/04/26 07:08:59;;;;;;;15.95;5.97;;;6.90;99.90;;;;;;5088659;28;20058;-71
2023/04/26 07:11:25;;;;;;;12.50;5.28;;;6.90;99.90;;;;;;5081168;28;20048;-71
2023/04/26 07:13:51;;;;;;;14.05;5.38;;;6.90;99.90;;;;;;5080423;28;20075;-71
2023/04/26 07:16:17;;;;;;;9.13;4.38;;;6.90;99.90;;;;;;5084804;28;20502;-71
2023/04/26 07:18:42;;;;;;;8.80;4.55;;;7.00;99.90;;;;;;5086093;28;20146;-71
2023/04/26 07:21:08;;;;;;;11.65;4.45;;;6.90;99.90;;;;;;5079660;28;20044;-71
2023/04/26 07:23:34;;;;;;;9.70;4.65;;;7.00;99.90;;;;;;5083011;28;20044;-71
2023/04/26 07:26:00;;;;;;;10.27;3.90;;;7.00;99.90;;;;;;5084049;28;20056;-71
2023/04/26 07:28:26;;;;;;;10.43;3.90;;;7.00;99.90;;;;;;5076647;28;20044;-72
2023/04/26 07:30:52;;;;;;;8.75;3.92;;;7.10;99.90;;;;;;5086172;28;20512;-72
2023/04/26 07:33:18;;;;;;;5.25;3.47;;;7.10;99.90;;;;;;5085893;28;20497;-71
2023/04/26 07:35:44;;;;;;;12.80;4.72;;;7.20;99.90;;;;;;5113325;27;20051;-72
2023/04/26 07:38:10;;;;;;;11.02;3.92;;;7.30;99.90;;;;;;5053425;28;20048;-71
2023/04/26 07:40:35;;;;;;;12.27;4.60;;;7.50;99.90;;;;;;5110730;27;20055;-72
2023/04/26 07:43:01;;;;;;;8.10;4.35;;;7.70;99.90;;;;;;5083974;28;20044;-72
2023/04/26 07:45:27;;;;;;;8.77;4.93;;;7.90;99.90;;;;;;5075427;28;20040;-72
2023/04/26 07:47:53;;;;;;;6.22;4.47;;;8.20;99.90;;;;;;5080358;28;20051;-72
2023/04/26 07:50:19;;;;;;;8.73;5.50;;;8.50;99.90;;;;;;5079607;28;20047;-71
2023/04/26 07:52:45;;;;;;;7.45;3.65;;;8.80;99.90;;;;;;5070390;28;20129;-72
2023/04/26 07:55:11;;;;;;;8.07;3.83;;;9.00;99.90;;;;;;5082111;28;20484;-71
2023/04/26 07:57:37;;;;;;;7.18;4.50;;;9.30;99.90;;;;;;5075461;28;20050;-72
2023/04/26 08:00:08;;;;;;;10.73;4.78;;;9.50;99.90;;;;;;5085640;28;20043;-72
2023/04/26 08:02:34;;;;;;;6.97;3.75;;;9.70;99.90;;;;;;5089454;28;20128;-72
2023/04/26 08:05:00;;;;;;;10.15;3.83;;;10.00;99.90;;;;;;5086685;28;20051;-72
2023/04/26 08:07:26;;;;;;;9.45;4.07;;;10.10;99.90;;;;;;5088798;28;20060;-71
2023/04/26 08:09:52;;;;;;;11.43;5.43;;;10.20;99.90;;;;;;5080341;28;20048;-72
2023/04/26 08:12:18;;;;;;;14.02;4.53;;;10.30;99.90;;;;;;5078717;28;20059;-71
2023/04/26 08:14:43;;;;;;;7.75;3.97;;;10.30;99.90;;;;;;5082206;28;20051;-71
2023/04/26 08:17:09;;;;;;;11.18;4.18;;;10.30;99.90;;;;;;5086434;28;20051;-72
2023/04/26 08:19:35;;;;;;;5.43;3.47;;;10.40;99.90;;;;;;5084997;28;20055;-72
2023/04/26 08:22:01;;;;;;;12.77;3.67;;;10.50;99.90;;;;;;5120871;27;20052;-72
2023/04/26 08:24:27;;;;;;;9.77;4.15;;;10.60;99.90;;;;;;5115985;27;20129;-71
2023/04/26 08:26:53;;;;;;;18.70;4.88;;;10.70;99.90;;;;;;5084139;28;20048;-72
2023/04/26 08:29:19;;;;;;;7.95;4.53;;;10.80;99.90;;;;;;5081036;28;20052;-71
2023/04/26 08:31:45;;;;;;;10.18;4.20;;;10.60;99.90;;;;;;5087140;28;20044;-72
2023/04/26 08:34:12;;;;;;;8.93;4.75;;;10.70;99.90;;;;;;5082107;28;20158;-72
2023/04/26 08:36:38;;;;;;;11.77;5.05;;;10.70;99.90;;;;;;5080891;28;20127;-72
2023/04/26 08:39:04;;;;;;;14.35;3.97;;;10.80;99.90;;;;;;5081231;28;20154;-72
2023/04/26 08:41:35;;;;;;;9.65;4.47;;;11.00;99.90;;;;;;5082204;28;20501;-72
2023/04/26 08:44:04;;;;;;;10.18;3.83;;;11.20;99.90;;;;;;5078016;28;20049;-71
2023/04/26 08:46:56;;;;;;;11.70;4.35;;;11.30;99.90;;;;;;5088429;28;20530;-71
2023/04/26 08:49:28;;;;;;;5.53;3.42;;;11.40;99.90;;;;;;5073872;28;20040;-71
2023/04/26 08:51:56;;;;;;;16.55;4.28;;;11.50;99.30;;;;;;5082019;28;20067;-72
2023/04/26 08:54:24;;;;;;;14.80;4.90;;;11.40;99.60;;;;;;5083375;28;20109;-71
2023/04/26 08:56:51;;;;;;;6.40;4.17;;;11.50;99.90;;;;;;5080140;28;20056;-71
2023/04/26 08:59:18;;;;;;;7.47;3.88;;;11.60;99.40;;;;;;5079210;28;20839;-71
2023/04/26 09:01:44;;;;;;;14.73;4.35;;;11.40;96.20;;;;;;5079717;28;20091;-71
2023/04/26 09:04:11;;;;;;;8.73;4.43;;;11.40;96.10;;;;;;5085971;28;20040;-71
2023/04/26 09:06:37;;;;;;;8.07;4.88;;;11.50;96.40;;;;;;5077788;28;20049;-71
2023/04/26 09:09:06;;;;;;;7.68;4.85;;;11.70;95.10;;;;;;5109619;27;20052;-70
2023/04/26 09:11:50;;;;;;;11.35;4.70;;;11.60;94.90;;;;;;5072982;28;20036;-71
2023/04/26 09:14:16;;;;;;;8.70;4.78;;;11.70;92.50;;;;;;5077410;28;20441;-70
2023/04/26 09:16:41;;;;;;;13.10;4.72;;;11.70;93.20;;;;;;5064740;28;20856;-70
2023/04/26 09:19:08;;;;;;;9.13;4.53;;;11.70;93.00;;;;;;5079629;28;20044;-70
2023/04/26 09:21:44;;;;;;;6.63;4.50;;;11.90;92.20;;;;;;5072395;28;20032;-70
2023/04/26 09:24:10;;;;;;;10.45;4.22;;;11.90;90.60;;;;;;5080197;28;20131;-70
2023/04/26 09:26:36;;;;;;;13.75;4.50;;;12.00;90.90;;;;;;5087774;28;20180;-70
2023/04/26 09:29:16;;;;;;;6.22;4.63;;;12.10;88.60;;;;;;5077836;28;20048;-69
2023/04/26 09:31:44;;;;;;;6.60;4.75;;;12.20;88.00;;;;;;5084376;28;20100;-70
2023/04/26 09:34:11;;;;;;;9.98;4.55;;;12.30;88.60;;;;;;5079385;28;20040;-70
2023/04/26 09:36:56;;;;;;;6.95;4.63;;;12.60;90.10;;;;;;5086759;28;20105;-70
2023/04/26 09:39:39;;;;;;;7.43;4.22;;;12.70;90.60;;;;;;5081421;28;20382;-70
2023/04/26 09:42:08;;;;;;;13.32;3.67;;;13.00;87.30;;;;;;5079635;28;20070;-69
2023/04/26 09:44:34;;;;;;;9.40;3.92;;;13.20;85.90;;;;;;5070929;28;20119;-70
2023/04/26 09:47:08;;;;;;;7.28;5.25;;;13.30;81.70;;;;;;5078621;28;20036;-70
2023/04/26 09:49:49;;;;;;;7.72;4.45;;;13.30;80.40;;;;;;5072341;28;20497;-70
2023/04/26 09:52:16;;;;;;;9.40;4.45;;;13.10;81.60;;;;;;5085158;28;20056;-70
2023/04/26 09:54:52;;;;;;;9.65;4.57;;;13.00;80.60;;;;;;5077875;28;20059;-69
2023/04/26 09:57:23;;;;;;;6.07;4.03;;;12.80;80.70;;;;;;5079176;28;20040;-69
2023/04/26 09:59:51;;;;;;;16.30;5.35;;;12.60;81.90;;;;;;5079903;28;20088;-70
2023/04/26 10:02:21;;;;;;;;;;;12.50;84.70;;;;;;5076907;28;20141;-70
2023/04/26 10:04:53;;;;;;;7.35;4.50;;;12.20;82.30;;;;;;5080851;28;19931;-70
2023/04/26 10:07:21;;;;;;;8.77;5.15;;;11.90;85.70;;;;;;5081374;28;20073;-70
2023/04/26 10:09:48;;;;;;;13.25;5.00;;;11.60;87.20;;;;;;5077099;28;20508;-70
2023/04/26 10:12:16;;;;;;;11.88;4.72;;;11.40;90.20;;;;;;5083512;28;20085;-70
2023/04/26 10:14:43;;;;;;;17.40;4.82;;;11.10;92.00;;;;;;5079843;28;20036;-70
2023/04/26 10:17:10;;;;;;;9.93;4.63;;;10.90;92.70;;;;;;5067303;28;20070;-70
2023/04/26 10:19:37;;;;;;;10.82;5.32;;;10.80;94.50;;;;;;5078255;28;20429;-70
2023/04/26 10:22:22;;;;;;;11.57;5.50;;;10.70;95.70;;;;;;5083509;28;20089;-69
2023/04/26 10:24:48;;;;;;;12.05;5.82;;;10.60;97.10;;;;;;5075882;28;20128;-70
2023/04/26 10:27:43;;;;;;;11.23;5.28;;;10.40;96.90;;;;;;5079308;28;20039;-70
2023/04/26 10:30:14;;;;;;;10.45;5.85;;;10.40;97.70;;;;;;5082442;28;20045;-70
2023/04/26 10:33:06;;;;;;;10.20;5.68;;;10.30;97.50;;;;;;5081279;28;20042;-70
2023/04/26 10:35:31;;;;;;;15.10;5.60;;;10.20;97.50;;;;;;5083826;28;20703;-70
2023/04/26 10:38:07;;;;;;;12.40;4.78;;;10.20;98.90;;;;;;5083530;28;20056;-68
2023/04/26 10:40:38;;;;;;;17.80;5.57;;;10.20;99.70;;;;;;5081386;28;20056;-70
2023/04/26 10:43:15;;;;;;;9.80;4.88;;;10.30;99.90;;;;;;5083741;28;20124;-70
2023/04/26 10:45:44;;;;;;;11.70;6.63;;;10.40;99.90;;;;;;5086318;28;20066;-70
2023/04/26 10:48:30;;;;;;;13.27;6.20;;;10.50;99.90;;;;;;5081742;28;20063;-70
2023/04/26 10:51:06;;;;;;;15.15;5.88;;;10.50;97.90;;;;;;5085291;28;20501;-70
2023/04/26 10:53:44;;;;;;;19.13;5.65;;;10.60;97.70;;;;;;5091311;28;20060;-70
2023/04/26 10:56:22;;;;;;;14.75;6.20;;;10.80;98.40;;;;;;5088325;28;20059;-70
2023/04/26 10:58:49;;;;;;;14.60;5.65;;;10.90;97.00;;;;;;5076417;28;20051;-70
2023/04/26 11:01:19;;;;;;;8.30;5.68;;;11.10;96.30;;;;;;5083954;28;20086;-70
2023/04/26 11:03:57;;;;;;;6.38;4.57;;;11.30;95.50;;;;;;5090419;28;20087;-70
2023/04/26 11:06:50;;;;;;;10.68;5.82;;;11.50;95.00;;;;;;5082441;28;20044;-70
2023/04/26 11:09:38;;;;;;;11.93;5.70;;;11.60;92.90;;;;;;5082186;28;20212;-70
2023/04/26 11:12:11;;;;;;;16.08;6.00;;;11.60;91.80;;;;;;5088788;28;20056;-70
2023/04/26 11:14:37;;;;;;;13.80;5.93;;;11.60;91.00;;;;;;5084197;28;20044;-70
2023/04/26 11:17:10;;;;;;;5.85;5.03;;;11.70;90.70;;;;;;5088316;28;20044;-69
2023/04/26 11:19:36;;;;;;;5.50;4.72;;;11.80;91.60;;;;;;5085210;28;20070;-70
2023/04/26 11:22:05;;;;;;;8.82;5.30;;;11.80;90.60;;;;;;5088911;28;20586;-69
2023/04/26 11:24:32;;;;;;;13.18;6.80;;;11.90;89.50;;;;;;5081925;28;20503;-69
2023/04/26 11:26:58;;;;;;;12.65;6.70;;;11.90;87.80;;;;;;5090041;28;20534;-70
2023/04/26 11:29:25;;;;;;;10.23;5.90;;;11.90;88.30;;;;;;5089141;28;20420;-69
2023/04/26 11:31:55;;;;;;;7.45;5.07;;;12.00;85.50;;;;;;5072344;28;20040;-69
2023/04/26 11:34:41;;;;;;;9.02;5.10;;;12.20;83.60;;;;;;5080824;28;20036;-69
2023/04/26 11:37:07;;;;;;;15.38;5.35;;;12.30;80.00;;;;;;5107237;27;20048;-70
2023/04/26 11:39:36;;;;;;;7.72;4.72;;;12.40;78.90;;;;;;5081251;28;20052;-70
2023/04/26 11:42:10;;;;;;;15.23;5.78;;;12.40;77.60;;;;;;5075791;28;20040;-69
2023/04/26 11:44:36;;;;;;;12.88;5.05;;;12.60;77.60;;;;;;5074518;28;20102;-70
2023/04/26 11:47:05;;;;;;;6.03;4.32;;;12.70;76.90;;;;;;5075369;28;20143;-70
2023/04/26 11:49:32;;;;;;;5.85;3.80;;;12.70;76.10;;;;;;5087959;28;20412;-69
2023/04/26 11:51:58;;;;;;;6.60;4.50;;;12.80;75.30;;;;;;5084685;28;20059;-70
2023/04/26 11:54:33;;;;;;;8.82;5.25;;;12.90;73.70;;;;;;5083773;28;20048;-70
2023/04/26 11:56:59;;;;;;;13.15;5.63;;;12.90;74.00;;;;;;5074295;28;20487;-70
2023/04/26 11:59:29;;;;;;;9.40;4.05;;;13.00;74.80;;;;;;5085012;28;20125;-69
2023/04/26 12:02:00;;;;;;;6.45;4.63;;;13.00;74.40;;;;;;5079283;28;20086;-70
2023/04/26 12:04:28;;;;;;;12.90;4.82;;;13.00;73.60;;;;;;5062992;28;20090;-70
2023/04/26 12:06:54;;;;;;;7.85;4.72;;;12.90;73.40;;;;;;5076591;28;20097;-70
2023/04/26 12:09:25;;;;;;;12.63;4.13;;;12.90;74.70;;;;;;5088882;28;20058;-70
2023/04/26 12:12:01;;;;;;;7.03;4.65;;;13.00;74.30;;;;;;5081132;28;20615;-69
2023/04/26 12:14:39;;;;;;;5.43;3.63;;;13.00;73.60;;;;;;5080270;28;20099;-70
2023/04/26 12:17:06;;;;;;;17.55;4.32;;;13.10;75.40;;;;;;5078636;28;20043;-69
2023/04/26 12:19:37;;;;;;;9.93;5.47;;;13.20;74.10;;;;;;5079149;28;20053;-69
2023/04/26 12:22:03;;;;;;;16.48;4.45;;;13.30;76.10;;;;;;5070056;28;20573;-69
2023/04/26 12:24:35;;;;;;;11.48;5.47;;;13.30;83.80;;;;;;5072740;28;20512;-69
2023/04/26 12:27:03;;;;;;;13.57;5.22;;;13.20;85.00;;;;;;5071092;28;20037;-69
2023/04/26 12:29:32;;;;;;;12.75;5.22;;;12.90;81.50;;;;;;5084263;28;20064;-69
2023/04/26 12:31:59;;;;;;;10.80;5.40;;;12.60;82.20;;;;;;5085549;28;20052;-69
2023/04/26 12:34:25;;;;;;;8.98;4.90;;;12.30;83.50;;;;;;5084330;28;20048;-69
2023/04/26 12:36:50;;;;;;;15.43;5.72;;;12.00;83.30;;;;;;5082420;28;20048;-70
2023/04/26 12:39:16;;;;;;;9.55;5.63;;;11.80;87.10;;;;;;5083930;28;20084;-70
2023/04/26 12:41:42;;;;;;;8.30;5.53;;;11.50;92.60;;;;;;5079532;28;20105;-70
2023/04/26 12:44:09;;;;;;;16.08;5.53;;;11.40;97.50;;;;;;5077318;28;20044;-69
2023/04/26 12:46:35;;;;;;;10.73;6.35;;;11.30;99.90;;;;;;5085757;28;20032;-70
2023/04/26 12:49:02;;;;;;;9.07;5.72;;;11.30;99.90;;;;;;5081352;28;20055;-70
2023/04/26 12:51:28;;;;;;;14.10;6.65;;;11.30;99.90;;;;;;5084493;28;20143;-70